Zhongxiang, China
Current Conditions -  °F | °C
As of 10:00 AM on Saturday 25 Oct 2014 (Local Time) from ZHHH Reporting Station
Haze Haze  
Wind Chill: 73°   Ceiling: Unl
Heat Index: 73°   Visibility: 2.5mi
Dew Point: 61°   Wind: 9mph
Humidity: 65%   Direction: 120°ESE
Pressure: 30.03"   Gusts: NA
Location:  31.17°N, 112.57°E
Report Text: ZHHH 250200Z 12004MPS 090V150 4000 HZ NSC 23/16 Q1017 NOSIG
Loading
Personal Weather Stations






























Interactive Weather Map
Tropical Storm Tracking
New forecast layout! Learn more

10-Day Weather Forecast

Advertisements
Track Severe Weather on mobile